Time;durP1;ratioP1;P1;durP2;ratioP2;P2;SDS_P1;SDS_P2;PMS_P1;PMS_P2;Temp;Humidity;BMP_temperature;BMP_pressure;BME280_temperature;BME280_humidity;BME280_pressure;Samples;Min_cycle;Max_cycle;Signal;HPM_P1;HPM_P2
2022/06/08 00:02:19;;;;;;;4.95;2.67;;;22.70;92.50;;;;;;5014282;28;20575;-73
2022/06/08 00:04:46;;;;;;;3.03;2.30;;;22.70;92.60;;;;;;5012480;28;20163;-73
2022/06/08 00:07:13;;;;;;;2.85;2.25;;;22.70;92.60;;;;;;5014686;28;20034;-73
2022/06/08 00:09:40;;;;;;;4.18;2.33;;;22.60;92.50;;;;;;5016502;28;20119;-73
2022/06/08 00:12:08;;;;;;;2.92;2.25;;;22.60;92.70;;;;;;5012393;28;20502;-74
2022/06/08 00:14:36;;;;;;;4.85;2.55;;;22.60;92.80;;;;;;5012437;28;20153;-74
2022/06/08 00:17:04;;;;;;;3.83;2.60;;;22.40;92.80;;;;;;5012623;28;20060;-74
2022/06/08 00:19:36;;;;;;;2.35;2.05;;;22.30;93.00;;;;;;5013000;28;20091;-74
2022/06/08 00:22:04;;;;;;;3.30;1.95;;;22.20;93.20;;;;;;5015489;28;20053;-75
2022/06/08 00:24:32;;;;;;;3.03;2.10;;;22.10;93.60;;;;;;5016006;28;20045;-73
2022/06/08 00:27:00;;;;;;;2.80;2.25;;;22.10;93.80;;;;;;5010313;28;20065;-74
2022/06/08 00:29:27;;;;;;;2.67;2.17;;;22.10;93.30;;;;;;5013185;28;20073;-74
2022/06/08 00:31:56;;;;;;;3.70;2.13;;;22.10;93.50;;;;;;5013574;28;20045;-72
2022/06/08 00:34:23;;;;;;;2.30;1.92;;;22.20;93.60;;;;;;5008603;28;20061;-75
2022/06/08 00:36:50;;;;;;;4.40;2.20;;;22.30;93.50;;;;;;5012935;28;20046;-73
2022/06/08 00:39:17;;;;;;;5.30;3.08;;;22.10;95.20;;;;;;5016381;28;20049;-72
2022/06/08 00:41:59;;;;;;;2.63;2.17;;;22.10;95.40;;;;;;5015274;28;20049;-72
2022/06/08 00:44:51;;;;;;;3.80;2.63;;;22.20;96.00;;;;;;5014459;28;20053;-72
2022/06/08 00:47:27;;;;;;;3.50;2.63;;;22.30;96.10;;;;;;5009468;28;20205;-72
2022/06/08 00:50:00;;;;;;;7.32;2.72;;;22.30;95.10;;;;;;5019083;28;20037;-72
2022/06/08 00:52:28;;;;;;;4.45;2.47;;;22.30;95.80;;;;;;5020984;28;20041;-72
2022/06/08 00:55:04;;;;;;;3.80;2.42;;;22.30;96.40;;;;;;5051214;28;20049;-72
2022/06/08 00:57:38;;;;;;;4.57;2.75;;;22.30;96.80;;;;;;5032071;28;20188;-73
2022/06/08 01:00:11;;;;;;;4.97;2.65;;;22.30;97.20;;;;;;5020203;28;20055;-72
2022/06/08 01:02:39;;;;;;;5.60;2.80;;;22.30;97.40;;;;;;5019750;28;20562;-73
2022/06/08 01:05:25;;;;;;;3.30;2.47;;;22.20;97.90;;;;;;5019837;28;20048;-73
2022/06/08 01:08:01;;;;;;;5.85;2.80;;;22.10;99.20;;;;;;5021046;28;20212;-74
2022/06/08 01:10:37;;;;;;;4.45;3.08;;;22.10;99.60;;;;;;5023726;28;20056;-74
2022/06/08 01:13:05;;;;;;;5.82;3.00;;;22.00;99.90;;;;;;5022291;28;20061;-74
2022/06/08 01:15:36;;;;;;;4.88;3.17;;;21.90;99.90;;;;;;5024062;28;20061;-74
2022/06/08 01:18:05;;;;;;;7.50;3.33;;;21.60;99.90;;;;;;5024468;28;20049;-75
2022/06/08 01:20:32;;;;;;;5.03;3.33;;;21.70;99.90;;;;;;5022141;28;20096;-74
2022/06/08 01:23:01;;;;;;;5.00;3.40;;;21.60;99.90;;;;;;5024310;28;20560;-75
2022/06/08 01:25:35;;;;;;;5.78;3.20;;;21.60;99.90;;;;;;5038851;28;20042;-74
2022/06/08 01:28:24;;;;;;;6.25;3.25;;;21.30;99.90;;;;;;5040843;28;20038;-75
2022/06/08 01:31:11;;;;;;;4.70;3.28;;;21.20;99.90;;;;;;5037946;28;20048;-75
2022/06/08 01:34:07;;;;;;;5.50;3.03;;;21.30;99.90;;;;;;5019413;28;20092;-75
2022/06/08 01:37:01;;;;;;;5.65;3.55;;;21.40;99.90;;;;;;5019548;28;20060;-75
2022/06/08 01:39:35;;;;;;;13.57;3.75;;;21.40;99.90;;;;;;5024559;28;20048;-75
2022/06/08 01:42:28;;;;;;;7.55;4.45;;;21.40;99.90;;;;;;5019920;28;20029;-75
2022/06/08 01:45:29;;;;;;;;;;;21.40;99.90;;;;;;5013048;28;20103;-75
2022/06/08 01:48:05;;;;;;;7.15;4.05;;;21.40;99.90;;;;;;5020178;28;19925;-74
2022/06/08 01:50:44;;;;;;;7.30;4.05;;;21.30;99.90;;;;;;5016044;28;20128;-71
2022/06/08 01:53:42;;;;;;;10.63;4.15;;;21.10;99.90;;;;;;5020686;28;20045;-71
2022/06/08 01:56:12;;;;;;;10.10;3.80;;;21.00;99.90;;;;;;5002478;28;20048;-70
2022/06/08 01:58:48;;;;;;;8.02;4.00;;;20.90;99.90;;;;;;5016831;28;20054;-71
2022/06/08 02:01:37;;;;;;;9.48;4.53;;;20.70;99.90;;;;;;5018683;28;20052;-71
2022/06/08 02:04:33;;;;;;;5.65;3.55;;;20.60;99.90;;;;;;5019318;28;20108;-71
2022/06/08 02:07:29;;;;;;;5.15;3.75;;;20.60;99.90;;;;;;5016923;28;20041;-72
2022/06/08 02:10:27;;;;;;;8.48;3.60;;;20.60;99.90;;;;;;5019271;28;20038;-72
2022/06/08 02:13:12;;;;;;;5.70;3.22;;;20.50;99.90;;;;;;5034461;28;20037;-72
2022/06/08 02:15:44;;;;;;;5.45;3.47;;;20.60;99.90;;;;;;5033515;28;20042;-72
2022/06/08 02:18:18;;;;;;;5.40;3.45;;;20.60;99.90;;;;;;5019555;28;20046;-72
2022/06/08 02:20:55;;;;;;;5.28;3.20;;;20.60;99.90;;;;;;5016300;28;20045;-72
2022/06/08 02:23:41;;;;;;;4.95;3.70;;;20.50;99.90;;;;;;5018554;28;20528;-73
2022/06/08 02:26:34;;;;;;;6.13;3.33;;;20.50;99.90;;;;;;5002121;28;20052;-73
2022/06/08 02:29:05;;;;;;;6.00;3.72;;;20.50;99.90;;;;;;5020488;28;20029;-73
2022/06/08 02:31:45;;;;;;;5.72;3.65;;;20.60;99.90;;;;;;5019819;28;20728;-73
2022/06/08 02:34:29;;;;;;;6.78;3.83;;;20.70;99.90;;;;;;4996969;28;20052;-73
2022/06/08 02:37:01;;;;;;;6.93;3.75;;;20.70;99.90;;;;;;5014647;28;20046;-72
2022/06/08 02:39:51;;;;;;;6.68;4.00;;;20.70;99.90;;;;;;5029962;28;20049;-71
2022/06/08 02:42:24;;;;;;;7.30;4.30;;;20.60;99.90;;;;;;5015833;28;20045;-72
2022/06/08 02:44:56;;;;;;;7.53;4.13;;;20.60;99.90;;;;;;5013251;28;20479;-72
2022/06/08 02:47:33;;;;;;;6.60;3.72;;;20.50;99.90;;;;;;5014647;28;20038;-73
2022/06/08 02:50:14;;;;;;;7.55;3.95;;;20.30;99.90;;;;;;5019787;28;20042;-72
2022/06/08 02:52:44;;;;;;;7.82;4.15;;;20.30;99.90;;;;;;5016497;28;20045;-72
2022/06/08 02:55:34;;;;;;;6.40;4.63;;;20.30;99.90;;;;;;5021912;28;20045;-72
2022/06/08 02:58:16;;;;;;;6.10;3.88;;;20.00;99.90;;;;;;5019041;28;20091;-72
2022/06/08 03:00:55;;;;;;;6.05;3.80;;;20.10;99.90;;;;;;5049836;28;20053;-72
2022/06/08 03:03:35;;;;;;;6.78;4.15;;;20.00;99.90;;;;;;5002651;28;20077;-73
2022/06/08 03:06:14;;;;;;;6.78;4.65;;;20.00;99.90;;;;;;5018920;28;20046;-73
2022/06/08 03:08:53;;;;;;;7.60;4.78;;;20.20;99.90;;;;;;5013177;28;20435;-73
2022/06/08 03:11:23;;;;;;;6.70;4.20;;;20.30;99.90;;;;;;5033998;28;20049;-72
2022/06/08 03:13:54;;;;;;;8.60;4.80;;;20.00;99.90;;;;;;5018837;28;20044;-73
2022/06/08 03:16:36;;;;;;;7.53;4.78;;;19.90;99.90;;;;;;5032648;28;20144;-72
2022/06/08 03:19:09;;;;;;;6.15;4.25;;;19.80;99.90;;;;;;5016940;28;20042;-73
2022/06/08 03:21:37;;;;;;;6.57;4.20;;;19.90;99.90;;;;;;5034090;28;20510;-72
2022/06/08 03:24:06;;;;;;;7.57;4.30;;;20.00;99.90;;;;;;5019234;28;20067;-72
2022/06/08 03:26:41;;;;;;;6.15;4.25;;;19.90;99.90;;;;;;5016698;28;20037;-72
2022/06/08 03:29:09;;;;;;;7.45;4.63;;;19.80;99.90;;;;;;5017940;28;20071;-72
2022/06/08 03:31:36;;;;;;;6.93;3.63;;;19.90;99.90;;;;;;5002191;28;20103;-74
2022/06/08 03:34:04;;;;;;;8.27;3.90;;;20.10;99.90;;;;;;5046434;28;20068;-73
2022/06/08 03:36:32;;;;;;;5.95;4.30;;;20.00;99.90;;;;;;5018806;28;20050;-73
2022/06/08 03:39:01;;;;;;;7.85;4.57;;;20.10;99.90;;;;;;5019859;28;20052;-73
2022/06/08 03:41:32;;;;;;;5.75;3.75;;;19.90;99.90;;;;;;5029708;28;20045;-73
2022/06/08 03:44:00;;;;;;;6.40;4.15;;;19.80;99.90;;;;;;5049341;28;21302;-73
2022/06/08 03:46:28;;;;;;;5.40;4.10;;;19.90;99.90;;;;;;5016323;28;20045;-73
2022/06/08 03:48:57;;;;;;;5.32;3.58;;;19.80;99.90;;;;;;5011330;28;20042;-72
2022/06/08 03:51:24;;;;;;;6.22;4.20;;;19.90;99.90;;;;;;5018253;28;20033;-73
2022/06/08 03:54:02;;;;;;;5.82;4.38;;;19.80;99.90;;;;;;5005995;28;20041;-73
2022/06/08 03:56:32;;;;;;;6.60;3.60;;;19.80;99.90;;;;;;5000581;28;20049;-73
2022/06/08 03:58:59;;;;;;;6.03;4.13;;;19.40;99.90;;;;;;5003494;28;20053;-73
2022/06/08 04:01:28;;;;;;;4.80;3.50;;;19.40;99.90;;;;;;5012201;28;20537;-74
2022/06/08 04:03:59;;;;;;;5.82;3.30;;;19.50;99.90;;;;;;5021039;28;20100;-73
2022/06/08 04:06:30;;;;;;;7.90;4.28;;;19.40;99.90;;;;;;5007893;28;20489;-72
2022/06/08 04:08:59;;;;;;;6.47;3.90;;;19.30;99.90;;;;;;5012540;28;20084;-73
2022/06/08 04:11:28;;;;;;;6.50;3.67;;;19.10;99.90;;;;;;5000698;28;20871;-73
2022/06/08 04:14:02;;;;;;;4.95;3.40;;;19.30;99.90;;;;;;4994810;28;20037;-74
2022/06/08 04:16:30;;;;;;;4.68;3.25;;;19.40;99.90;;;;;;5013948;28;20057;-73
2022/06/08 04:19:02;;;;;;;;;;;19.60;99.90;;;;;;5011122;28;20532;-73
2022/06/08 04:21:34;;;;;;;5.60;3.92;;;19.80;99.90;;;;;;5031965;28;20547;-73
2022/06/08 04:24:06;;;;;;;7.78;3.90;;;19.80;99.90;;;;;;5016038;28;20661;-72
2022/06/08 04:26:35;;;;;;;6.38;4.03;;;20.00;99.90;;;;;;5014210;28;20539;-73
2022/06/08 04:29:07;;;;;;;5.10;3.75;;;19.90;99.90;;;;;;5001897;28;20591;-73
2022/06/08 04:31:37;;;;;;;5.28;3.22;;;20.00;99.90;;;;;;5014006;28;20045;-72
2022/06/08 04:34:19;;;;;;;5.20;3.72;;;20.20;99.90;;;;;;4995283;28;20069;-73
2022/06/08 04:36:47;;;;;;;9.27;4.15;;;20.20;99.90;;;;;;5011996;28;20035;-73
2022/06/08 04:39:16;;;;;;;5.20;3.65;;;20.30;99.90;;;;;;4996965;28;20081;-72
2022/06/08 04:41:52;;;;;;;8.05;3.45;;;20.40;99.90;;;;;;4991159;28;20918;-73
2022/06/08 04:44:23;;;;;;;6.07;3.63;;;20.30;99.90;;;;;;5031361;28;20050;-72
2022/06/08 04:46:51;;;;;;;10.00;3.80;;;20.40;99.90;;;;;;5000151;28;20646;-73
2022/06/08 04:49:21;;;;;;;4.88;3.67;;;20.30;99.90;;;;;;5011594;28;20038;-72
2022/06/08 04:51:49;;;;;;;4.72;3.67;;;20.50;99.90;;;;;;5001800;28;20046;-72
2022/06/08 04:54:18;;;;;;;6.03;4.22;;;20.50;99.90;;;;;;5029029;28;20045;-72
2022/06/08 04:56:46;;;;;;;5.72;3.95;;;20.40;99.90;;;;;;5013816;28;20714;-73
2022/06/08 04:59:14;;;;;;;6.82;3.78;;;20.40;99.90;;;;;;5027213;28;20072;-73
2022/06/08 05:01:46;;;;;;;5.93;3.92;;;20.40;99.90;;;;;;4987574;28;20187;-73
2022/06/08 05:04:15;;;;;;;6.75;4.15;;;20.40;99.90;;;;;;4971085;28;20045;-73
2022/06/08 05:06:45;;;;;;;8.38;4.60;;;20.50;99.90;;;;;;4998278;28;20682;-72
2022/06/08 05:09:12;;;;;;;5.95;4.40;;;20.40;99.90;;;;;;4981376;28;20744;-73
2022/06/08 05:11:43;;;;;;;6.38;4.63;;;20.40;99.90;;;;;;5010609;28;20049;-73
2022/06/08 05:14:10;;;;;;;5.40;4.72;;;20.50;99.90;;;;;;4961886;28;21053;-73
2022/06/08 05:16:38;;;;;;;6.68;4.95;;;20.60;99.90;;;;;;4982682;28;20066;-73
2022/06/08 05:19:05;;;;;;;6.10;4.25;;;20.60;99.90;;;;;;4972832;28;22435;-73
2022/06/08 05:21:33;;;;;;;7.90;4.75;;;20.70;99.90;;;;;;4964651;28;20050;-73
2022/06/08 05:24:09;;;;;;;6.25;4.80;;;20.70;99.90;;;;;;5017502;28;20057;-73
2022/06/08 05:26:41;;;;;;;;;;;20.70;99.90;;;;;;5016273;28;22474;-73
2022/06/08 05:29:08;;;;;;;7.95;5.00;;;20.70;99.90;;;;;;5020144;28;22369;-73
2022/06/08 05:31:37;;;;;;;7.03;5.47;;;20.80;99.90;;;;;;4986321;28;20191;-73
2022/06/08 05:34:06;;;;;;;11.05;5.10;;;21.00;99.90;;;;;;4983168;28;21085;-72
2022/06/08 05:36:35;;;;;;;9.15;4.20;;;21.30;99.90;;;;;;4965921;28;20061;-73
2022/06/08 05:39:06;;;;;;;5.83;3.67;;;21.40;99.90;;;;;;5002279;28;20046;-73
2022/06/08 05:41:39;;;;;;;5.97;4.07;;;21.50;99.90;;;;;;5002530;28;20310;-72
2022/06/08 05:44:08;;;;;;;6.57;3.97;;;21.80;99.90;;;;;;5000770;28;20053;-73
2022/06/08 05:46:35;;;;;;;5.47;3.97;;;22.10;99.90;;;;;;4966667;28;20045;-73
2022/06/08 05:49:07;;;;;;;6.63;4.35;;;22.30;99.90;;;;;;4984874;28;21699;-73
2022/06/08 05:51:40;;;;;;;6.45;3.75;;;22.30;99.90;;;;;;4974013;28;22583;-73
2022/06/08 05:54:09;;;;;;;7.22;4.00;;;22.40;99.90;;;;;;4972558;28;21107;-72
2022/06/08 05:56:39;;;;;;;6.65;4.10;;;22.40;99.90;;;;;;4982234;28;20049;-73
2022/06/08 05:59:07;;;;;;;4.93;4.20;;;22.50;99.90;;;;;;4980769;28;20056;-72
2022/06/08 06:01:37;;;;;;;5.43;3.83;;;22.20;99.90;;;;;;4978399;28;20433;-72
2022/06/08 06:04:07;;;;;;;7.35;4.05;;;22.00;99.90;;;;;;4978332;28;20135;-73
2022/06/08 06:06:35;;;;;;;5.55;3.70;;;21.70;99.90;;;;;;4998624;28;20088;-73
2022/06/08 06:09:04;;;;;;;5.53;4.00;;;22.00;99.90;;;;;;4980062;28;21940;-73
2022/06/08 06:11:33;;;;;;;4.93;3.53;;;22.30;99.90;;;;;;4965563;28;20079;-74
2022/06/08 06:14:00;;;;;;;6.43;3.83;;;22.60;99.90;;;;;;4980640;28;20185;-72
2022/06/08 06:16:30;;;;;;;5.07;3.88;;;22.70;99.90;;;;;;4981757;28;20188;-73
2022/06/08 06:18:58;;;;;;;7.05;3.92;;;22.80;99.90;;;;;;4996208;28;20049;-72
2022/06/08 06:21:40;;;;;;;6.35;4.28;;;22.90;99.90;;;;;;4970970;28;20057;-72
2022/06/08 06:24:39;;;;;;;6.63;4.18;;;22.40;99.90;;;;;;4972844;28;20070;-72
2022/06/08 06:27:21;;;;;;;7.97;3.80;;;22.50;99.90;;;;;;4998638;28;20062;-73
2022/06/08 06:29:52;;;;;;;5.68;3.70;;;22.80;99.90;;;;;;4982530;28;20056;-72
2022/06/08 06:32:54;;;;;;;8.30;4.55;;;23.00;99.90;;;;;;4964664;28;20061;-73
2022/06/08 06:35:29;;;;;;;8.88;4.03;;;23.10;99.90;;;;;;4960454;28;20171;-72
2022/06/08 06:38:03;;;;;;;6.07;3.90;;;23.20;99.90;;;;;;4995176;28;20049;-72
2022/06/08 06:40:34;;;;;;;6.68;4.25;;;23.20;99.90;;;;;;4978361;28;20045;-72
2022/06/08 06:43:02;;;;;;;6.80;4.53;;;23.40;99.90;;;;;;4970119;28;20042;-72
2022/06/08 06:45:49;;;;;;;6.95;4.00;;;23.40;99.90;;;;;;4980545;28;20050;-73
2022/06/08 06:48:36;;;;;;;7.40;4.35;;;23.60;99.90;;;;;;4980709;28;20053;-73
2022/06/08 06:51:06;;;;;;;8.73;4.47;;;23.50;99.90;;;;;;4971556;28;20049;-73
2022/06/08 06:53:34;;;;;;;6.60;4.63;;;23.50;99.90;;;;;;5009826;28;20061;-72
2022/06/08 06:56:02;;;;;;;6.57;5.50;;;23.70;99.90;;;;;;4981326;28;20138;-73
2022/06/08 06:58:48;;;;;;;6.40;4.50;;;23.90;99.90;;;;;;5000763;28;20064;-72
2022/06/08 07:01:17;;;;;;;6.05;4.45;;;23.60;99.90;;;;;;4986715;28;20055;-73
2022/06/08 07:03:45;;;;;;;7.00;4.70;;;23.40;99.90;;;;;;4975783;28;20071;-73
2022/06/08 07:06:13;;;;;;;8.43;5.72;;;23.30;99.90;;;;;;4981007;28;20137;-73
2022/06/08 07:08:40;;;;;;;5.97;4.25;;;23.40;99.90;;;;;;4995968;28;20042;-73
2022/06/08 07:14:05;;;;;;;6.55;4.57;;;23.90;99.90;;;;;;4967311;28;20682;-73
2022/06/08 07:16:34;;;;;;;6.68;4.95;;;24.20;99.90;;;;;;4975691;28;20171;-72
2022/06/08 07:19:01;;;;;;;7.93;4.75;;;24.20;98.70;;;;;;4980320;28;20130;-73
2022/06/08 07:21:29;;;;;;;5.05;4.28;;;24.30;99.90;;;;;;4998350;28;20057;-74
2022/06/08 07:23:56;;;;;;;5.53;4.00;;;24.50;98.50;;;;;;4986287;28;20065;-73
2022/06/08 07:26:28;;;;;;;5.75;4.30;;;24.60;98.00;;;;;;4978486;28;20058;-74
2022/06/08 07:28:56;;;;;;;7.07;4.22;;;24.70;97.10;;;;;;5001502;28;20176;-72
2022/06/08 07:31:25;;;;;;;5.38;4.00;;;24.90;96.80;;;;;;4982060;28;22480;-73
2022/06/08 07:33:53;;;;;;;6.85;4.72;;;24.90;97.60;;;;;;4983425;28;22344;-74
2022/06/08 07:36:20;;;;;;;7.68;4.85;;;24.80;94.90;;;;;;4988874;28;20049;-73
2022/06/08 07:38:48;;;;;;;7.25;4.75;;;24.60;94.90;;;;;;4984877;28;20073;-72
2022/06/08 07:41:15;;;;;;;6.10;4.25;;;24.80;95.10;;;;;;5001255;28;20954;-74
2022/06/08 07:43:42;;;;;;;4.93;4.13;;;25.20;96.30;;;;;;4989633;28;20045;-73
2022/06/08 07:46:10;;;;;;;5.13;3.70;;;25.30;92.80;;;;;;4985774;28;20350;-73
2022/06/08 07:51:23;;;;;;;6.72;4.13;;;25.30;88.70;;;;;;4977933;28;20056;-73
2022/06/08 07:53:50;;;;;;;5.18;3.58;;;25.30;89.30;;;;;;4985425;28;20053;-73
2022/06/08 07:56:17;;;;;;;4.68;3.35;;;25.40;86.50;;;;;;4985065;28;20142;-72
2022/06/08 07:58:45;;;;;;;3.38;2.67;;;25.60;90.40;;;;;;4983293;28;22508;-71
2022/06/08 08:01:12;;;;;;;3.72;2.75;;;25.70;84.00;;;;;;4996606;28;22503;-73
2022/06/08 08:03:39;;;;;;;6.43;3.35;;;25.80;81.60;;;;;;4988553;28;20041;-73
2022/06/08 08:06:07;;;;;;;4.57;3.15;;;25.80;81.10;;;;;;4974324;28;20045;-73
2022/06/08 08:08:34;;;;;;;4.38;2.97;;;25.60;83.00;;;;;;4977092;28;20056;-72
2022/06/08 08:11:01;;;;;;;4.22;2.95;;;25.50;81.30;;;;;;5004083;28;20049;-73
2022/06/08 08:13:28;;;;;;;3.33;2.70;;;25.50;78.60;;;;;;4973156;28;20693;-73
2022/06/08 08:15:55;;;;;;;3.95;2.70;;;25.60;77.20;;;;;;4986373;28;20480;-72
2022/06/08 08:18:23;;;;;;;2.75;2.20;;;25.80;79.20;;;;;;4989380;28;20061;-73
2022/06/08 08:20:50;;;;;;;4.38;2.65;;;25.90;74.50;;;;;;5002677;28;20065;-73
2022/06/08 08:23:18;;;;;;;4.45;2.92;;;26.00;71.60;;;;;;5001663;28;20607;-73
2022/06/08 08:25:45;;;;;;;4.53;2.72;;;26.00;76.40;;;;;;5001096;28;20094;-74
2022/06/08 08:28:12;;;;;;;2.85;2.22;;;26.00;72.30;;;;;;4982407;28;20049;-73
2022/06/08 08:30:39;;;;;;;3.75;2.30;;;26.10;74.70;;;;;;5002553;28;20045;-74
2022/06/08 08:33:07;;;;;;;3.15;2.38;;;26.20;73.40;;;;;;4984176;28;20045;-73
2022/06/08 08:35:35;;;;;;;4.03;3.10;;;26.30;73.80;;;;;;4983330;28;20054;-73
2022/06/08 08:38:02;;;;;;;2.85;2.50;;;26.20;76.40;;;;;;5004777;28;20899;-73
2022/06/08 08:40:44;;;;;;;3.80;3.05;;;26.40;75.40;;;;;;5001439;28;22357;-74
2022/06/08 08:43:18;;;;;;;4.05;3.03;;;26.30;73.30;;;;;;4982676;28;20037;-72
2022/06/08 08:46:02;;;;;;;4.78;2.58;;;26.40;74.80;;;;;;4979754;28;20092;-73
2022/06/08 08:48:49;;;;;;;4.93;2.90;;;26.30;75.20;;;;;;4979780;28;20050;-73
2022/06/08 08:51:25;;;;;;;2.70;2.50;;;26.10;75.10;;;;;;4979990;28;20058;-73
2022/06/08 08:54:03;;;;;;;5.78;3.17;;;26.00;74.40;;;;;;4978557;28;20057;-73
2022/06/08 08:56:39;;;;;;;3.67;2.60;;;26.10;73.00;;;;;;4972313;28;20054;-73
2022/06/08 08:59:18;;;;;;;3.90;2.90;;;26.30;73.20;;;;;;4999856;28;20057;-73
2022/06/08 09:01:55;;;;;;;6.78;2.67;;;26.30;71.60;;;;;;4988188;28;20041;-73
2022/06/08 09:04:32;;;;;;;3.88;2.15;;;26.50;71.40;;;;;;4981707;28;20500;-74
2022/06/08 09:07:17;;;;;;;4.07;2.50;;;26.50;68.90;;;;;;4987691;28;20136;-73
2022/06/08 09:09:45;;;;;;;4.90;2.65;;;26.10;70.60;;;;;;4985445;28;20106;-73
2022/06/08 09:12:19;;;;;;;3.28;2.42;;;26.00;74.50;;;;;;4987596;28;20045;-73
2022/06/08 09:15:00;;;;;;;2.60;2.20;;;26.10;73.40;;;;;;4984945;28;20176;-72
2022/06/08 09:17:35;;;;;;;4.22;2.30;;;26.30;73.50;;;;;;4985416;28;22370;-73
2022/06/08 09:20:31;;;;;;;5.20;2.38;;;26.20;72.70;;;;;;4989030;28;20045;-72
2022/06/08 09:23:04;;;;;;;6.10;2.90;;;26.20;72.40;;;;;;5003468;28;20148;-73
2022/06/08 09:25:38;;;;;;;3.80;2.10;;;26.00;71.60;;;;;;5003345;28;20061;-72
2022/06/08 09:28:26;;;;;;;4.13;2.80;;;25.90;71.60;;;;;;4977059;28;20050;-72
2022/06/08 09:30:53;;;;;;;3.45;2.53;;;25.90;71.00;;;;;;4965998;28;20111;-71
2022/06/08 09:33:27;;;;;;;5.90;3.33;;;26.10;71.00;;;;;;5003206;28;20143;-73
2022/06/08 09:36:20;;;;;;;5.38;2.88;;;26.00;69.20;;;;;;5000405;28;20053;-73
2022/06/08 09:38:47;;;;;;;2.95;2.45;;;26.00;69.80;;;;;;4981237;28;20049;-73
2022/06/08 09:41:56;;;;;;;3.95;2.30;;;25.90;67.80;;;;;;4984582;28;20033;-72
2022/06/08 09:44:37;;;;;;;7.22;2.50;;;26.10;70.20;;;;;;4924897;28;20089;-73
2022/06/08 09:53:44;;;;;;;3.03;2.72;;;26.90;66.70;;;;;;4993079;28;20061;-73
2022/06/08 09:56:46;;;;;;;2.35;1.95;;;26.80;65.40;;;;;;4987559;28;20053;-73
2022/06/08 09:59:23;;;;;;;5.50;2.35;;;26.70;67.90;;;;;;4972865;28;20057;-73
2022/06/08 10:02:02;;;;;;;3.42;2.17;;;26.80;65.80;;;;;;4978111;28;20064;-73
2022/06/08 10:05:00;;;;;;;3.63;1.90;;;27.00;66.40;;;;;;4986618;28;20050;-75
2022/06/08 10:08:03;;;;;;;2.35;2.13;;;27.00;69.30;;;;;;4968536;28;20061;-75
2022/06/08 10:10:37;;;;;;;3.05;2.22;;;27.10;65.90;;;;;;4977549;28;20076;-72
2022/06/08 10:13:20;;;;;;;2.78;2.10;;;27.10;65.20;;;;;;5019041;28;20512;-73
2022/06/08 10:15:51;;;;;;;4.22;2.10;;;27.10;66.40;;;;;;4992105;28;20045;-72
2022/06/08 10:18:37;;;;;;;2.70;2.10;;;27.10;65.70;;;;;;5008104;28;20045;-73
2022/06/08 10:21:24;;;;;;;2.03;1.80;;;27.10;63.60;;;;;;4988809;28;20286;-73
2022/06/08 10:24:00;;;;;;;3.17;2.15;;;27.30;66.10;;;;;;4965652;28;20050;-72
2022/06/08 10:26:35;;;;;;;3.65;1.90;;;27.30;64.20;;;;;;4987273;28;22447;-73
2022/06/08 10:29:21;;;;;;;5.32;2.03;;;27.40;65.40;;;;;;4985217;28;20049;-72
2022/06/08 10:32:00;;;;;;;2.40;1.65;;;27.50;65.80;;;;;;4987015;28;20045;-73
2022/06/08 10:34:34;;;;;;;3.60;1.95;;;27.50;64.60;;;;;;5003423;28;20176;-74
2022/06/08 10:37:18;;;;;;;4.68;2.08;;;27.50;63.10;;;;;;5004802;28;20064;-74
2022/06/08 10:39:50;;;;;;;2.67;1.40;;;27.50;62.50;;;;;;4987250;28;20244;-73
2022/06/08 10:42:39;;;;;;;2.08;1.70;;;27.40;65.20;;;;;;4985157;28;20157;-73
2022/06/08 10:45:35;;;;;;;4.50;1.75;;;27.40;64.10;;;;;;4976917;28;20575;-73
2022/06/08 10:48:14;;;;;;;4.10;1.83;;;27.20;62.70;;;;;;4984271;28;20053;-72
2022/06/08 10:50:44;;;;;;;3.42;1.88;;;27.20;63.80;;;;;;4990658;28;20087;-72
2022/06/08 10:56:35;;;;;;;4.03;1.50;;;27.20;64.40;;;;;;4991298;28;20818;-73
2022/06/08 10:59:03;;;;;;;2.78;1.50;;;27.30;60.50;;;;;;4972892;28;20247;-72
2022/06/08 11:01:57;;;;;;;2.35;1.70;;;27.30;63.80;;;;;;5006242;28;20053;-73
2022/06/08 11:04:30;;;;;;;2.25;1.95;;;27.40;63.20;;;;;;4979388;28;20061;-72
2022/06/08 11:07:02;;;;;;;4.20;1.55;;;27.50;62.40;;;;;;4987587;28;20057;-72
2022/06/08 11:09:32;;;;;;;4.15;2.05;;;27.50;62.60;;;;;;4991351;28;20040;-72
2022/06/08 11:12:04;;;;;;;;;;;27.40;61.90;;;;;;4962285;28;20056;-72
2022/06/08 11:14:57;;;;;;;4.70;1.80;;;27.20;62.60;;;;;;4985700;28;20610;-73
2022/06/08 11:17:35;;;;;;;3.70;1.70;;;27.10;61.20;;;;;;4985422;28;20964;-73
2022/06/08 11:20:15;;;;;;;1.98;1.60;;;27.10;62.40;;;;;;4982268;28;20050;-73
2022/06/08 11:22:54;;;;;;;4.75;2.28;;;27.20;63.80;;;;;;4986653;28;20180;-73
2022/06/08 11:25:30;;;;;;;2.90;1.98;;;27.30;63.30;;;;;;4984205;28;20057;-72
2022/06/08 11:28:31;;;;;;;3.30;1.60;;;27.40;63.30;;;;;;4987912;28;20065;-74
2022/06/08 11:31:04;;;;;;;3.55;2.13;;;27.50;62.70;;;;;;4988437;28;20073;-73
2022/06/08 11:34:06;;;;;;;2.00;1.60;;;27.60;64.40;;;;;;5006470;28;20444;-73
2022/06/08 11:36:47;;;;;;;2.20;1.85;;;27.60;61.50;;;;;;5003801;28;20259;-73
2022/06/08 11:39:37;;;;;;;3.67;2.10;;;27.60;63.20;;;;;;4985981;28;20041;-72
2022/06/08 11:42:36;;;;;;;8.50;2.20;;;27.50;66.00;;;;;;5000494;28;20959;-73
2022/06/08 11:45:15;;;;;;;3.20;2.47;;;27.30;66.30;;;;;;4986118;28;20058;-73
2022/06/08 11:47:49;;;;;;;2.97;2.05;;;27.20;65.50;;;;;;5004070;28;20041;-72
2022/06/08 11:50:23;;;;;;;3.53;2.55;;;27.20;65.90;;;;;;4990891;28;20060;-73
2022/06/08 11:53:03;;;;;;;3.03;2.65;;;27.20;64.20;;;;;;4986435;28;20068;-72
2022/06/08 11:56:07;;;;;;;4.18;2.33;;;27.10;66.40;;;;;;5001589;28;20805;-74
2022/06/08 11:58:36;;;;;;;4.88;3.55;;;27.10;66.20;;;;;;4968718;28;20102;-72
2022/06/08 12:01:11;;;;;;;3.78;2.60;;;27.40;65.80;;;;;;4984230;28;20052;-73
2022/06/08 12:03:44;;;;;;;2.55;2.33;;;27.70;66.70;;;;;;4982008;28;20053;-73
2022/06/08 12:06:13;;;;;;;3.67;2.30;;;27.50;65.40;;;;;;5001400;28;20080;-74
2022/06/08 12:08:45;;;;;;;5.00;3.13;;;27.60;67.00;;;;;;4988906;28;20064;-73
2022/06/08 12:11:21;;;;;;;3.63;3.25;;;27.80;68.60;;;;;;4983956;28;20518;-72
2022/06/08 12:13:54;;;;;;;4.00;3.10;;;27.90;68.40;;;;;;4978595;28;21109;-74
2022/06/08 12:16:36;;;;;;;3.53;3.22;;;27.90;69.00;;;;;;4987810;28;20050;-74
2022/06/08 12:19:16;;;;;;;4.47;3.38;;;28.00;69.90;;;;;;4991719;28;22857;-73
2022/06/08 12:21:49;;;;;;;4.75;3.63;;;28.10;70.00;;;;;;4987822;28;20055;-72
2022/06/08 12:24:22;;;;;;;3.95;3.20;;;28.20;68.50;;;;;;4990571;28;20046;-73
2022/06/08 12:27:14;;;;;;;6.45;3.25;;;28.00;68.20;;;;;;4983946;28;20041;-73
2022/06/08 12:29:57;;;;;;;4.13;3.70;;;27.70;69.90;;;;;;4986933;28;20399;-73
2022/06/08 12:32:28;;;;;;;3.95;3.40;;;27.70;71.40;;;;;;4984374;28;20048;-72
2022/06/08 12:35:01;;;;;;;4.68;4.00;;;27.60;70.30;;;;;;4993102;28;22475;-75
2022/06/08 12:37:28;;;;;;;4.82;4.15;;;27.60;72.10;;;;;;4992172;28;22755;-74
2022/06/08 12:40:00;;;;;;;4.72;3.92;;;27.70;76.50;;;;;;4985999;28;20065;-73
2022/06/08 12:42:31;;;;;;;7.28;4.82;;;27.70;77.30;;;;;;4983483;28;20894;-73
2022/06/08 12:45:01;;;;;;;5.28;4.13;;;27.50;76.80;;;;;;5010024;28;20045;-73
2022/06/08 12:47:42;;;;;;;6.65;4.47;;;27.40;77.50;;;;;;4994605;28;20045;-74
2022/06/08 12:50:14;;;;;;;5.35;4.85;;;27.50;79.20;;;;;;4995650;28;22521;-73
2022/06/08 12:52:43;;;;;;;5.65;4.40;;;27.50;80.50;;;;;;5008766;28;20069;-73
2022/06/08 12:55:21;;;;;;;6.18;4.30;;;27.50;80.40;;;;;;4994650;28;20037;-72
2022/06/08 12:57:49;;;;;;;7.63;5.03;;;27.70;80.80;;;;;;5006299;28;20050;-74
2022/06/08 13:00:21;;;;;;;6.00;5.03;;;27.70;80.40;;;;;;4992883;28;20037;-74
2022/06/08 13:02:50;;;;;;;8.38;4.90;;;27.80;80.20;;;;;;4975294;28;20141;-73
2022/06/08 13:05:22;;;;;;;5.30;4.50;;;27.90;85.00;;;;;;4991637;28;20045;-74
2022/06/08 13:07:50;;;;;;;6.97;4.25;;;27.90;81.80;;;;;;4993030;28;20037;-72
2022/06/08 13:10:20;;;;;;;6.07;5.13;;;27.90;80.70;;;;;;4990238;28;20041;-73
2022/06/08 13:12:54;;;;;;;6.07;5.47;;;28.00;81.50;;;;;;4983035;28;20045;-74
2022/06/08 13:15:28;;;;;;;5.57;4.60;;;28.00;80.00;;;;;;4965181;28;20064;-74
2022/06/08 13:17:56;;;;;;;8.75;5.47;;;27.90;82.90;;;;;;4973517;28;20736;-73
2022/06/08 13:20:27;;;;;;;5.72;5.10;;;27.70;81.40;;;;;;4971131;28;20068;-73
2022/06/08 13:22:55;;;;;;;9.18;5.65;;;27.40;81.20;;;;;;4989981;28;20042;-73
2022/06/08 13:25:33;;;;;;;9.73;5.55;;;27.10;83.60;;;;;;4988227;28;20075;-73
2022/06/08 13:28:01;;;;;;;6.45;5.05;;;26.90;84.40;;;;;;4988767;28;20148;-73
2022/06/08 13:30:33;;;;;;;5.57;4.97;;;26.80;86.40;;;;;;4987316;28;20042;-73
2022/06/08 13:33:00;;;;;;;9.00;6.20;;;26.60;87.80;;;;;;4995837;28;22829;-74
2022/06/08 13:35:30;;;;;;;9.98;7.57;;;26.40;93.20;;;;;;4995205;28;20045;-74
2022/06/08 13:37:58;;;;;;;8.77;7.65;;;26.00;98.90;;;;;;4986718;28;20053;-73
2022/06/08 13:40:29;;;;;;;8.85;7.85;;;25.90;99.90;;;;;;5003741;28;20182;-73
2022/06/08 13:42:58;;;;;;;8.68;7.28;;;25.80;99.90;;;;;;4988978;28;20051;-73